Time,TemperatureF,DewpointF,PressureIn,WindDirection,WindDirectionDegrees,WindSpeedMPH,WindSpeedGustMPH,Humidity,HourlyPrecipIn,Conditions,Clouds,dailyrainin,SoftwareType,DateUTC
2013-03-29 00:00:00,25.0,18.0,-100.00,SW,224,7.0,12.0,72,-99.99,,,-99.99,,2013-03-29 04:00:00,
2013-03-29 00:43:00,25.0,18.0,-100.00,SW,224,7.0,12.0,72,-99.99,,,-99.99,,2013-03-29 04:43:00,
2013-03-29 00:53:00,25.0,18.0,-100.00,SW,224,7.0,12.0,72,-99.99,,,-99.99,,2013-03-29 04:53:00,
2013-03-29 01:00:00,26.0,16.0,-100.00,West,267,4.0,9.0,66,-99.99,,,-99.99,,2013-03-29 05:00:00,
2013-03-29 01:43:00,26.0,16.0,-100.00,West,267,4.0,9.0,66,-99.99,,,-99.99,,2013-03-29 05:43:00,
2013-03-29 01:52:00,26.0,16.0,-100.00,West,267,4.0,9.0,66,-99.99,,,-99.99,,2013-03-29 05:52:00,
2013-03-29 02:00:00,25.0,17.0,-100.00,SW,217,9.0,13.0,70,-99.99,,,-99.99,,2013-03-29 06:00:00,
2013-03-29 02:42:00,25.0,17.0,-100.00,SW,217,9.0,13.0,70,-99.99,,,-99.99,,2013-03-29 06:42:00,
2013-03-29 02:52:00,25.0,17.0,-100.00,SW,217,9.0,13.0,70,-99.99,,,-99.99,,2013-03-29 06:52:00,
2013-03-29 04:00:00,26.0,13.0,-100.00,WSW,238,12.0,24.0,57,-99.99,,,-99.99,,2013-03-29 08:00:00,
2013-03-29 04:42:00,26.0,13.0,-100.00,WSW,238,12.0,24.0,57,-99.99,,,-99.99,,2013-03-29 08:42:00,
2013-03-29 04:53:00,26.0,13.0,-100.00,WSW,238,12.0,24.0,57,-99.99,,,-99.99,,2013-03-29 08:53:00,
2013-03-29 05:00:00,26.0,13.0,-100.00,WSW,240,16.0,27.0,58,-99.99,,,-99.99,,2013-03-29 09:00:00,
2013-03-29 05:43:00,26.0,13.0,-100.00,WSW,240,16.0,27.0,58,-99.99,,,-99.99,,2013-03-29 09:43:00,
2013-03-29 05:52:00,26.0,13.0,-100.00,WSW,240,16.0,27.0,58,-99.99,,,-99.99,,2013-03-29 09:52:00,
2013-03-29 06:00:00,26.0,13.0,-100.00,WSW,251,15.0,27.0,57,-99.99,,,-99.99,,2013-03-29 10:00:00,
2013-03-29 06:42:00,26.0,13.0,-100.00,WSW,251,15.0,27.0,57,-99.99,,,-99.99,,2013-03-29 10:42:00,
2013-03-29 06:53:00,26.0,13.0,-100.00,WSW,251,15.0,27.0,57,-99.99,,,-99.99,,2013-03-29 10:53:00,
2013-03-29 07:00:00,24.0,14.0,-100.00,West,280,10.0,21.0,63,-99.99,,,-99.99,,2013-03-29 11:00:00,
2013-03-29 07:43:00,24.0,14.0,-100.00,West,280,10.0,21.0,63,-99.99,,,-99.99,,2013-03-29 11:43:00,
2013-03-29 07:53:00,24.0,14.0,-100.00,West,280,10.0,21.0,63,-99.99,,,-99.99,,2013-03-29 11:53:00,
2013-03-29 10:00:00,23.0,16.0,-100.00,WNW,293,9.0,18.0,72,-99.99,,,-99.99,,2013-03-29 14:00:00,
2013-03-29 10:42:00,23.0,16.0,-100.00,WNW,293,9.0,18.0,72,-99.99,,,-99.99,,2013-03-29 14:42:00,
2013-03-29 10:53:00,23.0,16.0,-100.00,WNW,293,9.0,18.0,72,-99.99,,,-99.99,,2013-03-29 14:53:00,
2013-03-29 11:00:00,22.0,18.0,-100.00,NNW,329,9.0,17.0,83,-99.99,,,-99.99,,2013-03-29 15:00:00,
2013-03-29 11:43:00,22.0,18.0,-100.00,NNW,329,9.0,17.0,83,-99.99,,,-99.99,,2013-03-29 15:43:00,
2013-03-29 11:53:00,22.0,18.0,-100.00,NNW,329,9.0,17.0,83,-99.99,,,-99.99,,2013-03-29 15:53:00,
2013-03-29 12:00:00,25.0,20.0,-100.00,NW,314,4.0,10.0,83,-99.99,,,-99.99,,2013-03-29 16:00:00,
2013-03-29 12:43:00,25.0,20.0,-100.00,NW,314,4.0,10.0,83,-99.99,,,-99.99,,2013-03-29 16:43:00,
2013-03-29 12:53:00,25.0,20.0,-100.00,NW,314,4.0,10.0,83,-99.99,,,-99.99,,2013-03-29 16:53:00,
2013-03-29 13:00:00,24.0,21.0,-100.00,NW,307,8.0,17.0,87,-99.99,,,-99.99,,2013-03-29 17:00:00,
2013-03-29 13:43:00,24.0,21.0,-100.00,NW,307,8.0,17.0,87,-99.99,,,-99.99,,2013-03-29 17:43:00,
2013-03-29 13:53:00,24.0,21.0,-100.00,NW,307,8.0,17.0,87,-99.99,,,-99.99,,2013-03-29 17:53:00,
2013-03-29 15:00:00,27.0,19.0,-100.00,West,280,11.0,24.0,70,-99.99,,,-99.99,,2013-03-29 19:00:00,
2013-03-29 15:43:00,27.0,19.0,-100.00,West,280,11.0,24.0,70,-99.99,,,-99.99,,2013-03-29 19:43:00,
2013-03-29 15:53:00,27.0,19.0,-100.00,West,280,11.0,24.0,70,-99.99,,,-99.99,,2013-03-29 19:53:00,
2013-03-29 18:00:00,26.0,24.0,-100.00,North,8,7.0,17.0,94,-99.99,,,-99.99,,2013-03-29 22:00:00,
2013-03-29 18:43:00,26.0,24.0,-100.00,North,8,7.0,17.0,94,-99.99,,,-99.99,,2013-03-29 22:43:00,
2013-03-29 18:54:00,26.0,24.0,-100.00,North,8,7.0,17.0,94,-99.99,,,-99.99,,2013-03-29 22:54:00,
2013-03-29 20:00:00,26.0,21.0,-100.00,WNW,286,15.0,29.0,82,-99.99,,,-99.99,,2013-03-30 00:00:00,
2013-03-29 20:43:00,26.0,21.0,-100.00,WNW,286,15.0,29.0,82,-99.99,,,-99.99,,2013-03-30 00:43:00,
2013-03-29 20:53:00,26.0,21.0,-100.00,WNW,286,15.0,29.0,82,-99.99,,,-99.99,,2013-03-30 00:53:00,
2013-03-29 23:00:00,23.0,22.0,-100.00,North,359,9.0,21.0,96,-99.99,,,-99.99,,2013-03-30 03:00:00,
2013-03-29 23:43:00,23.0,22.0,-100.00,North,359,9.0,21.0,96,-99.99,,,-99.99,,2013-03-30 03:43:00,
2013-03-29 23:53:00,23.0,22.0,-100.00,North,359,9.0,21.0,96,-99.99,,,-99.99,,2013-03-30 03:53:00,